Time;durP1;ratioP1;P1;durP2;ratioP2;P2;SDS_P1;SDS_P2;PMS_P1;PMS_P2;Temp;Humidity;BMP_temperature;BMP_pressure;BME280_temperature;BME280_humidity;BME280_pressure;Samples;Min_cycle;Max_cycle;Signal;HPM_P1;HPM_P2
2022/09/24 00:00:07;;;;;;;;;58.00;42.00;;;;;6.01;100.00;99796.03;6311727;20;2876331;-57
2022/09/24 00:02:37;;;;;;;;;70.00;52.67;;;;;5.78;100.00;99800.44;6281412;20;3637997;-55
2022/09/24 00:05:07;;;;;;;;;68.67;56.33;;;;;5.70;100.00;99802.56;6312439;20;3631520;-56
2022/09/24 00:07:37;;;;;;;;;74.33;55.00;;;;;6.03;100.00;99810.13;6311036;20;3637832;-57
2022/09/24 00:10:07;;;;;;;;;69.33;52.33;;;;;6.20;100.00;99802.31;6311034;20;3633583;-55
2022/09/24 00:12:37;;;;;;;;;75.33;57.00;;;;;5.87;100.00;99800.09;6313686;20;3633597;-56
2022/09/24 00:15:08;;;;;;;;;66.33;53.33;;;;;5.64;100.00;99802.81;6312416;20;3626441;-55
2022/09/24 00:17:36;;;;;;;;;70.00;49.00;;;;;5.40;100.00;99794.84;6312685;20;2760702;-55
2022/09/24 00:20:06;;;;;;;;;63.67;50.33;;;;;5.32;100.00;99794.28;6275853;20;3620210;-57
2022/09/24 00:22:36;;;;;;;;;66.67;48.67;;;;;5.76;100.00;99799.63;6312572;20;3628377;-57
2022/09/24 00:27:54;;;;;;;;;63.00;49.33;;;;;5.82;100.00;99794.06;6310650;20;3621095;-57
2022/09/24 00:30:24;;;;;;;;;63.33;47.33;;;;;5.72;100.00;99792.72;6312229;20;2863818;-55
2022/09/24 00:32:53;;;;;;;;;66.33;49.00;;;;;5.67;100.00;99787.56;6310440;20;2878467;-57
2022/09/24 00:35:24;;;;;;;;;64.00;50.67;;;;;5.60;100.00;99791.38;6310771;20;3623207;-56
2022/09/24 00:37:53;;;;;;;;;61.00;49.00;;;;;5.64;100.00;99786.81;6307737;20;2870192;-56
2022/09/24 00:40:28;;;;;;;;;30.00;23.50;;;;;5.50;100.00;99790.91;6277130;20;2810673;-57
2022/09/24 00:42:57;;;;;;;;;50.00;41.33;;;;;5.53;100.00;99794.34;6279733;20;2862783;-55
2022/09/24 00:45:29;;;;;;;;;52.50;43.50;;;;;5.72;100.00;99784.72;6307852;20;2848169;-56
2022/09/24 00:47:58;;;;;;;;;61.33;46.67;;;;;5.56;100.00;99789.78;6277098;20;2874444;-57
2022/09/24 00:50:34;;;;;;;;;63.33;47.33;;;;;5.42;100.00;99776.13;6310498;20;2885884;-52
2022/09/24 00:53:18;;;;;;;;;58.00;46.00;;;;;5.26;100.00;99776.72;6309275;20;2866965;-52
2022/09/24 00:55:55;;;;;;;;;56.00;43.00;;;;;5.30;100.00;99768.63;6279437;20;2861805;-57
2022/09/24 00:58:25;;;;;;;;;60.00;45.67;;;;;5.40;100.00;99773.53;6309321;20;2866994;-56
2022/09/24 01:01:04;;;;;;;;;54.33;40.33;;;;;5.67;100.00;99765.38;6307978;20;2879479;-56
2022/09/24 01:03:39;;;;;;;;;52.00;41.50;;;;;5.67;100.00;99765.38;6309953;20;2863824;-56
2022/09/24 01:06:09;;;;;;;;;57.00;44.00;;;;;5.28;100.00;99763.38;6276491;20;2874321;-56
2022/09/24 01:08:39;;;;;;;;;51.50;43.00;;;;;5.70;100.00;99760.78;6275873;20;2835771;-56
2022/09/24 01:11:58;;;;;;;;;59.00;40.50;;;;;5.25;100.00;99755.50;6277118;20;2870187;-56
2022/09/24 01:14:39;;;;;;;;;47.50;40.00;;;;;5.01;100.00;99755.50;6280506;20;2852358;-56
2022/09/24 01:17:19;;;;;;;;;58.50;47.00;;;;;5.13;100.00;99763.94;6278581;20;2864896;-57
2022/09/24 01:20:31;;;;;;;;;67.00;49.67;;;;;4.83;100.00;99753.53;6280644;20;3624316;-56
2022/09/24 01:24:23;;;;;;;;;63.33;48.00;;;;;4.56;100.00;99750.97;6306610;20;2878563;-56
2022/09/24 01:27:21;;;;;;;;;57.67;46.33;;;;;4.88;100.00;99743.59;6304645;20;2862821;-54
2022/09/24 01:30:05;;;;;;;;;55.00;43.00;;;;;4.80;100.00;99746.53;6308230;20;2855615;-57
2022/09/24 01:32:49;;;;;;;;;59.50;48.50;;;;;4.71;100.00;99746.00;6279275;20;2856586;-52
2022/09/24 01:35:52;;;;;;;;;69.00;52.00;;;;;4.59;100.00;99742.00;6276971;20;3641109;-51
2022/09/24 01:38:30;;;;;;;;;67.33;53.33;;;;;4.56;100.00;99748.31;6297328;20;3622157;-47
2022/09/24 01:41:03;;;;;;;;;74.67;55.67;;;;;4.67;100.00;99747.91;6310256;20;3677425;-46
2022/09/24 01:43:33;;;;;;;;;66.33;52.00;;;;;5.11;100.00;99741.84;6274131;20;3635668;-47
2022/09/24 01:46:05;;;;;;;;;62.50;50.00;;;;;4.78;100.00;99743.06;6309225;20;2865927;-47
2022/09/24 01:48:36;;;;;;;;;67.00;49.67;;;;;4.77;100.00;99745.78;6280637;20;3634629;-47
2022/09/24 01:51:28;;;;;;;;;58.00;48.00;;;;;4.71;100.00;99740.69;6309588;20;2855545;-45
2022/09/24 01:54:11;;;;;;;;;63.67;49.33;;;;;4.50;100.00;99737.91;6273246;20;2875415;-48
2022/09/24 01:57:24;;;;;;;;;68.00;50.67;;;;;4.57;100.00;99741.19;6304536;20;3644105;-48
2022/09/24 02:00:09;;;;;;;;;61.50;51.00;;;;;4.39;100.00;99740.03;6301666;20;2862795;-47
2022/09/24 02:03:14;;;;;;;;;60.33;48.00;;;;;4.44;100.00;99743.41;6276895;20;2874530;-47
2022/09/24 02:06:25;;;;;;;;;56.50;43.00;;;;;4.40;100.00;99747.97;6306385;20;2854454;-48
2022/09/24 02:08:58;;;;;;;;;59.00;46.50;;;;;4.32;100.00;99750.03;6275740;20;2872312;-46
2022/09/24 02:11:30;;;;;;;;;58.33;46.33;;;;;4.57;100.00;99750.03;6278740;20;2875393;-46
2022/09/24 02:14:15;;;;;;;;;60.00;45.50;;;;;4.53;100.00;99743.09;6301303;20;2856556;-45
2022/09/24 02:16:50;;;;;;;;;59.50;48.00;;;;;4.29;100.00;99738.63;6274078;20;2869114;-46
2022/09/24 02:19:27;;;;;;;;;61.50;45.00;;;;;4.80;100.00;99745.69;6273428;20;2877493;-46
2022/09/24 02:21:57;;;;;;;;;51.00;43.00;;;;;4.34;100.00;99736.69;6274905;20;2857538;-49
2022/09/24 02:24:44;;;;;;;;;54.50;42.00;;;;;4.15;100.00;99742.63;6274095;20;2864940;-48
2022/09/24 02:27:13;;;;;;;;;52.50;43.00;;;;;4.03;100.00;99743.09;6278927;20;2853568;-48
2022/09/24 02:29:43;;;;;;;;;51.00;40.00;;;;;4.31;100.00;99736.81;6280390;20;2881594;-46
2022/09/24 02:32:17;;;;;;;;;53.50;41.00;;;;;4.04;100.00;99742.16;6303981;20;2500337;-47
2022/09/24 02:34:55;;;;;;;;;53.50;41.50;;;;;4.09;100.00;99742.00;6275518;20;2852417;-46
2022/09/24 02:37:25;;;;;;;;;53.00;41.00;;;;;4.36;100.00;99740.16;6274938;20;2879455;-47
2022/09/24 02:39:54;;;;;;;;;46.50;40.00;;;;;4.29;100.00;99744.84;6309691;20;2860073;-46
2022/09/24 02:42:23;;;;;;;;;51.67;37.67;;;;;4.72;100.00;99750.41;6276697;20;3621158;-47
2022/09/24 02:44:56;;;;;;;;;47.33;40.33;;;;;4.46;100.00;99751.34;6303887;20;3625363;-50
2022/09/24 02:47:28;;;;;;;;;45.33;37.67;;;;;4.35;100.00;99744.63;6306659;20;2875406;-49
2022/09/24 02:49:59;;;;;;;;;50.67;39.33;;;;;4.33;100.00;99742.94;6310552;20;2864889;-45
2022/09/24 02:52:27;;;;;;;;;47.00;41.00;;;;;4.07;100.00;99742.03;6306532;20;2869163;-47
2022/09/24 02:54:56;;;;;;;;;41.00;33.50;;;;;3.96;100.00;99746.84;6275369;20;2856604;-48
2022/09/24 02:57:25;;;;;;;;;52.00;37.67;;;;;3.80;100.00;99742.97;6277566;20;3616907;-47
2022/09/24 02:59:54;;;;;;;;;40.00;34.50;;;;;3.61;100.00;99740.94;6308959;20;2834634;-49
2022/09/24 03:02:24;;;;;;;;;52.67;39.67;;;;;3.34;100.00;99747.09;6276155;20;2883903;-48
2022/09/24 03:04:54;;;;;;;;;40.00;30.67;;;;;3.37;100.00;99736.38;6303601;20;3627487;-48
2022/09/24 03:07:21;;;;;;;;;37.00;29.00;;;;;3.54;100.00;99742.03;6300339;20;2500431;-49
2022/09/24 03:09:51;;;;;;;;;57.00;45.67;;;;;3.69;100.00;99744.19;6282635;20;2861838;-47
2022/09/24 03:12:21;;;;;;;;;120.00;91.33;;;;;3.69;100.00;99733.56;6312492;20;3704431;-45
2022/09/24 03:14:50;;;;;;;;;90.33;65.00;;;;;3.62;100.00;99733.81;6281639;20;3661686;-46
2022/09/24 03:17:20;;;;;;;;;97.33;69.33;;;;;3.77;100.00;99738.63;6275833;20;3674340;-46
2022/09/24 03:19:49;;;;;;;;;106.00;80.00;;;;;3.61;100.00;99730.31;6278722;20;3699306;-45
2022/09/24 03:22:19;;;;;;;;;77.00;58.33;;;;;3.63;100.00;99732.91;6279484;20;3626397;-49
2022/09/24 03:24:49;;;;;;;;;92.00;64.33;;;;;3.62;100.00;99732.03;6310834;20;3670051;-49
2022/09/24 03:27:19;;;;;;;;;84.00;61.00;;;;;3.61;100.00;99727.66;6280227;20;3648257;-47
2022/09/24 03:32:37;;;;;;;;;80.00;57.00;;;;;3.29;100.00;99733.97;6310536;20;3658607;-47
2022/09/24 03:35:07;;;;;;;;;70.00;53.00;;;;;3.45;100.00;99734.34;6308924;20;3638999;-52
2022/09/24 03:37:37;;;;;;;;;49.00;42.50;;;;;3.36;100.00;99732.00;6314156;20;2853410;-48
2022/09/24 03:40:07;;;;;;;;;77.33;53.00;;;;;3.19;100.00;99730.75;6280308;20;3652374;-47
2022/09/24 03:42:37;;;;;;;;;112.67;68.67;;;;;3.21;100.00;99726.28;6313444;20;3689856;-51
2022/09/24 03:45:08;;;;;;;;;72.00;50.00;;;;;3.16;100.00;99728.19;6275670;20;2885919;-46
2022/09/24 03:47:37;;;;;;;;;55.00;41.00;;;;;3.39;100.00;99730.09;6312883;20;2865895;-49
2022/09/24 03:50:10;;;;;;;;;36.33;33.00;;;;;3.29;100.00;99728.66;6312788;20;2861837;-51
2022/09/24 03:52:39;;;;;;;;;39.33;33.00;;;;;3.37;100.00;99720.47;6312686;20;3623340;-48
2022/09/24 03:55:10;;;;;;;;;104.00;65.00;;;;;3.68;100.00;99729.16;6312709;20;3688759;-47
2022/09/24 03:57:39;;;;;;;;;76.67;51.00;;;;;3.46;100.00;99726.34;6311204;20;3641907;-48
2022/09/24 04:00:10;;;;;;;;;86.00;63.33;;;;;3.47;100.00;99727.22;6313401;20;3646471;-50
2022/09/24 04:02:40;;;;;;;;;89.00;62.33;;;;;3.42;100.00;99727.38;6311144;20;3649329;-48
2022/09/24 04:05:09;;;;;;;;;91.33;62.00;;;;;3.32;100.00;99717.06;6308910;20;3641929;-47
2022/09/24 04:07:40;;;;;;;;;91.00;60.33;;;;;3.39;100.00;99722.16;6309762;20;3648191;-59
2022/09/24 04:10:10;;;;;;;;;73.33;55.33;;;;;3.36;100.00;99718.72;6311569;20;3634642;-59
2022/09/24 04:12:42;;;;;;;;;70.67;51.67;;;;;3.36;100.00;99719.59;6310169;20;3654405;-60
2022/09/24 04:15:12;;;;;;;;;63.00;49.00;;;;;3.44;100.00;99719.34;6311576;20;2876844;-60
2022/09/24 04:17:49;;;;;;;;;65.00;48.33;;;;;3.39;100.00;99719.50;6312631;20;2886803;-59
2022/09/24 04:20:21;;;;;;;;;68.33;49.67;;;;;3.27;100.00;99710.16;6307223;20;2874322;-59
2022/09/24 04:22:52;;;;;;;;;60.50;47.00;;;;;3.35;100.00;99715.22;6311776;20;2856497;-59
2022/09/24 04:25:24;;;;;;;;;49.00;40.00;;;;;3.48;100.00;99707.72;6277904;20;2867094;-60
2022/09/24 04:27:59;;;;;;;;;58.50;44.50;;;;;3.46;100.00;99705.13;6281587;20;2856622;-59
2022/09/24 04:30:30;;;;;;;;;48.00;40.00;;;;;3.20;100.00;99705.94;6279766;20;2874245;-59
2022/09/24 04:33:01;;;;;;;;;86.33;60.67;;;;;3.06;100.00;99705.50;6275589;20;3648236;-59
2022/09/24 04:35:34;;;;;;;;;90.33;63.67;;;;;3.22;100.00;99706.78;6312009;20;3657700;-60
2022/09/24 04:38:05;;;;;;;;;89.33;63.00;;;;;3.23;100.00;99708.50;6273931;20;3653620;-59
2022/09/24 04:40:34;;;;;;;;;75.33;52.00;;;;;3.27;100.00;99710.16;6312650;20;3637938;-59
2022/09/24 04:43:04;;;;;;;;;83.33;59.00;;;;;3.23;100.00;99713.78;6308187;20;3643100;-60
2022/09/24 04:45:34;;;;;;;;;78.67;58.00;;;;;3.27;100.00;99704.84;6310966;20;3642019;-60
2022/09/24 04:48:04;;;;;;;;;95.67;68.67;;;;;3.33;100.00;99710.88;6308872;20;3677384;-60
2022/09/24 04:50:32;;;;;;;;;44.00;31.00;;;;;3.93;100.00;99713.28;6281076;20;2830557;-59
2022/09/24 04:53:01;;;;;;;;;60.00;46.00;;;;;3.67;100.00;99708.84;6270985;20;2869103;-60
2022/09/24 04:55:31;;;;;;;;;78.33;58.33;;;;;3.43;100.00;99709.66;6278554;20;3632935;-59
2022/09/24 04:58:00;;;;;;;;;76.67;55.33;;;;;4.04;100.00;99710.28;6310419;20;3644114;-60
2022/09/24 05:00:32;;;;;;;;;79.33;59.33;;;;;3.94;100.00;99708.84;6307895;20;3646064;-59
2022/09/24 05:03:02;;;;;;;;;84.67;62.00;;;;;3.87;100.00;99720.59;6305114;20;3650277;-59
2022/09/24 05:05:34;;;;;;;;;114.67;93.33;;;;;4.12;100.00;99715.31;6302451;20;3693133;-59
2022/09/24 05:08:05;;;;;;;;;112.25;100.25;;;;;4.36;100.00;99724.22;6271738;20;4464873;-60
2022/09/24 05:10:33;;;;;;;;;135.50;116.00;;;;;4.03;100.00;99721.84;6274950;20;1947694;-55
2022/09/24 05:13:03;;;;;;;;;104.00;74.33;;;;;4.10;100.00;99715.34;6276813;20;3705500;-44
2022/09/24 05:15:33;;;;;;;;;126.00;99.50;;;;;4.47;100.00;99721.16;6276771;20;3719223;-54
2022/09/24 05:18:07;;;;;;;;;89.00;65.00;;;;;4.78;100.00;99721.78;6277345;20;3672130;-54
2022/09/24 05:20:37;;;;;;;;;73.33;54.67;;;;;4.55;100.00;99727.94;6278523;20;3645123;-45
2022/09/24 05:23:06;;;;;;;;;61.67;49.67;;;;;4.53;100.00;99728.91;6309331;20;2864832;-45
2022/09/24 05:27:07;;;;;;;;;68.33;50.00;;;;;4.49;100.00;99725.50;6309795;20;3632612;-57
2022/09/24 05:28:24;;;;;;;;;54.00;40.00;;;;;4.71;100.00;99724.72;6307118;20;2839888;-53
2022/09/24 05:30:58;;;;;;;;;63.33;50.00;;;;;4.99;100.00;99729.88;6278983;20;2862836;-53
2022/09/24 05:33:28;;;;;;;;;72.67;53.33;;;;;4.70;100.00;99734.50;6305533;20;3638843;-45
2022/09/24 05:35:57;;;;;;;;;59.00;47.50;;;;;4.94;100.00;99747.81;6304169;20;2848368;-44
2022/09/24 05:38:28;;;;;;;;;68.67;51.00;;;;;4.98;100.00;99738.81;6279525;20;3652423;-45
2022/09/24 05:40:58;;;;;;;;;72.33;56.00;;;;;5.14;100.00;99750.59;6308024;20;2881793;-46
2022/09/24 05:43:28;;;;;;;;;69.33;54.00;;;;;5.14;100.00;99733.75;6306741;20;3637766;-51
2022/09/24 05:45:57;;;;;;;;;65.00;52.50;;;;;5.36;100.00;99739.09;6305208;20;2879479;-46
2022/09/24 05:48:26;;;;;;;;;55.50;46.00;;;;;5.26;100.00;99725.28;6274711;20;2856527;-46
2022/09/24 05:50:54;;;;;;;;;56.00;47.00;;;;;5.17;100.00;99723.00;6273960;20;2500283;-46
2022/09/24 05:53:23;;;;;;;;;57.00;43.00;;;;;5.31;100.00;99728.63;6278840;20;2854590;-44
2022/09/24 05:55:53;;;;;;;;;73.33;56.00;;;;;6.29;100.00;99737.06;6273774;20;2890025;-44
2022/09/24 05:58:23;;;;;;;;;64.00;52.00;;;;;8.32;98.86;99739.03;6310289;20;2864651;-44
2022/09/24 06:00:52;;;;;;;;;55.00;44.00;;;;;8.30;94.89;99740.94;6310632;20;2852411;-44
2022/09/24 06:03:21;;;;;;;;;54.50;44.50;;;;;9.86;91.55;99747.66;6278062;20;2858618;-44
2022/09/24 06:05:53;;;;;;;;;48.50;40.00;;;;;11.56;81.36;99752.53;6273383;20;2842971;-51
2022/09/24 06:08:23;;;;;;;;;138.00;120.00;;;;;11.49;78.39;99757.44;6278953;20;4484657;-49
2022/09/24 06:10:57;;;;;;;;;74.33;57.67;;;;;10.10;84.87;99746.22;6278031;20;2881796;-47
2022/09/24 06:13:27;;;;;;;;;54.00;42.00;;;;;8.81;91.37;99747.22;6306472;20;2861806;-45
2022/09/24 06:16:07;;;;;;;;;58.00;47.00;;;;;8.25;95.15;99749.19;6307062;20;3602386;-47
2022/09/24 06:18:43;;;;;;;;;53.00;43.00;;;;;8.01;97.98;99743.28;6307355;20;2863914;-47
2022/09/24 06:21:16;;;;;;;;;52.67;40.33;;;;;8.16;97.90;99756.81;6308771;20;3623191;-48
2022/09/24 06:23:45;;;;;;;;;46.00;38.00;;;;;8.14;98.20;99755.09;6306917;20;2856689;-47
2022/09/24 06:26:14;;;;;;;;;49.00;39.50;;;;;8.02;100.00;99758.38;6274226;20;2856573;-46
2022/09/24 06:28:44;;;;;;;;;55.00;39.67;;;;;8.22;99.58;99757.38;6275900;20;3630488;-47
2022/09/24 06:31:12;;;;;;;;;43.00;38.00;;;;;8.62;99.35;99751.81;6307346;20;2856693;-47
2022/09/24 06:33:42;;;;;;;;;52.00;40.00;;;;;8.52;99.86;99752.28;6282511;20;2882597;-50
2022/09/24 06:36:11;;;;;;;;;50.00;40.00;;;;;8.65;99.63;99752.50;6310712;20;2866139;-48
2022/09/24 06:38:40;;;;;;;;;50.50;40.00;;;;;8.57;99.32;99749.38;6311298;20;2848274;-51
2022/09/24 06:41:10;;;;;;;;;45.33;39.33;;;;;9.12;98.34;99750.91;6274040;20;2870249;-46
2022/09/24 06:43:38;;;;;;;;;50.00;40.50;;;;;9.09;98.23;99751.09;6309385;20;2853415;-46
2022/09/24 06:46:09;;;;;;;;;51.00;39.67;;;;;9.63;96.33;99751.63;6283667;20;2867013;-45
2022/09/24 06:48:38;;;;;;;;;44.67;36.00;;;;;9.72;96.92;99752.94;6314257;20;2868090;-49
2022/09/24 06:51:08;;;;;;;;;42.00;37.00;;;;;9.55;96.86;99753.88;6315270;20;2862846;-46
2022/09/24 06:53:37;;;;;;;;;47.33;39.33;;;;;9.67;97.47;99753.22;6315482;20;2859733;-48
2022/09/24 06:56:06;;;;;;;;;46.33;40.00;;;;;9.69;97.05;99756.69;6313568;20;2861901;-47
2022/09/24 06:58:36;;;;;;;;;46.00;37.67;;;;;10.04;96.86;99761.81;6317073;20;2856583;-46
2022/09/24 07:01:06;;;;;;;;;45.67;38.33;;;;;10.48;95.44;99761.91;6317425;20;2854641;-47
2022/09/24 07:03:35;;;;;;;;;41.00;36.50;;;;;11.51;93.48;99774.34;6314472;20;2862777;-46
2022/09/24 07:06:06;;;;;;;;;48.50;40.50;;;;;14.73;80.13;99787.72;6281875;20;2855678;-49
2022/09/24 07:08:35;;;;;;;;;41.33;32.33;;;;;12.93;80.92;99777.41;6283310;20;3622183;-47
2022/09/24 07:11:04;;;;;;;;;51.00;41.00;;;;;11.48;87.95;99782.63;6316297;20;3594043;-52
2022/09/24 07:13:34;;;;;;;;;47.33;38.00;;;;;11.16;90.31;99787.31;6283595;20;2862808;-52
2022/09/24 07:16:03;;;;;;;;;50.00;40.33;;;;;11.15;94.17;99781.06;6307954;20;2855645;-44
2022/09/24 07:18:33;;;;;;;;;47.67;38.67;;;;;10.85;95.17;99780.28;6313642;20;2858778;-60
2022/09/24 07:21:02;;;;;;;;;51.67;42.67;;;;;10.98;95.25;99784.81;6314907;20;2854486;-60
2022/09/24 07:23:31;;;;;;;;;47.00;39.00;;;;;10.95;93.87;99786.81;6311288;20;2837759;-60
2022/09/24 07:25:58;;;;;;;;;46.00;40.00;;;;;10.64;96.13;99782.47;6283844;20;2493065;-60
2022/09/24 07:28:28;;;;;;;;;48.00;38.33;;;;;10.80;94.29;99782.41;6284753;20;2847223;-60
2022/09/24 07:30:59;;;;;;;;;50.33;39.00;;;;;10.89;94.42;99789.88;6306027;20;3613876;-60
2022/09/24 07:33:31;;;;;;;;;50.67;40.67;;;;;10.88;95.34;99786.34;6321046;20;3606574;-60
2022/09/24 07:36:06;;;;;;;;;49.00;39.00;;;;;11.13;93.64;99807.16;6283783;20;2859249;-60
2022/09/24 07:38:35;;;;;;;;;50.33;37.33;;;;;11.33;93.24;99815.84;6283995;20;3645273;-60
2022/09/24 07:41:07;;;;;;;;;45.67;39.67;;;;;11.66;91.67;99799.38;6311959;20;3595064;-45
2022/09/24 07:43:37;;;;;;;;;56.00;45.33;;;;;11.50;91.35;99802.19;6314932;20;2860689;-45
2022/09/24 07:46:06;;;;;;;;;51.50;41.00;;;;;11.98;91.59;99805.41;6314606;20;2838815;-46
2022/09/24 07:48:35;;;;;;;;;57.00;46.67;;;;;12.62;88.29;99804.75;6285743;20;2865987;-44
2022/09/24 07:51:10;;;;;;;;;53.33;42.67;;;;;12.49;87.96;99804.72;6314573;20;3614923;-58
2022/09/24 07:53:39;;;;;;;;;52.67;41.33;;;;;12.78;86.60;99801.88;6282287;20;3603480;-44
2022/09/24 07:56:08;;;;;;;;;41.00;35.33;;;;;12.81;87.10;99804.34;6315502;20;3597132;-44
2022/09/24 07:58:37;;;;;;;;;63.67;51.33;;;;;12.74;86.47;99809.28;6282659;20;2881562;-46
2022/09/24 08:01:09;;;;;;;;;129.75;118.00;;;;;12.91;86.58;99814.38;6306863;20;3721135;-43
2022/09/24 08:03:39;;;;;;;;;59.33;48.00;;;;;13.05;85.43;99818.81;6316464;20;3611737;-44
2022/09/24 08:06:09;;;;;;;;;56.33;45.67;;;;;13.31;84.45;99825.09;6303725;20;2862871;-46
2022/09/24 08:08:39;;;;;;;;;50.33;41.00;;;;;13.44;81.44;99822.41;6316685;20;3588910;-46
2022/09/24 08:11:12;;;;;;;;;51.00;41.00;;;;;13.74;81.22;99816.63;6279146;20;2852425;-44
2022/09/24 08:13:41;;;;;;;;;49.33;39.33;;;;;13.92;80.63;99816.25;6314129;20;2851321;-47
2022/09/24 08:16:12;;;;;;;;;51.33;40.67;;;;;14.28;79.45;99821.63;6311708;20;2846157;-45
2022/09/24 08:18:42;;;;;;;;;47.33;37.33;;;;;14.02;76.93;99828.97;6320484;20;3599195;-44
2022/09/24 08:21:14;;;;;;;;;33.33;32.33;;;;;14.54;76.29;99823.41;6284676;20;3607650;-44
2022/09/24 08:23:44;;;;;;;;;44.33;36.67;;;;;14.45;76.47;99811.41;6283516;20;2843044;-45
2022/09/24 08:26:14;;;;;;;;;46.00;37.00;;;;;14.48;77.34;99814.75;6313952;20;3589863;-46
2022/09/24 08:28:43;;;;;;;;;46.67;37.00;;;;;14.34;78.11;99814.06;6278932;20;3618155;-45
2022/09/24 08:31:12;;;;;;;;;42.33;36.00;;;;;13.92;79.12;99802.78;6317552;20;3605553;-45
2022/09/24 08:33:45;;;;;;;;;46.00;37.00;;;;;14.28;79.09;99815.38;6280534;20;2857702;-46
2022/09/24 08:36:13;;;;;;;;;46.33;39.00;;;;;14.41;78.04;99807.22;6312221;20;3594176;-48
2022/09/24 08:38:43;;;;;;;;;31.67;27.33;;;;;15.12;76.52;99813.50;6282007;20;2856672;-48
2022/09/24 08:41:11;;;;;;;;;36.67;33.67;;;;;15.12;75.33;99806.22;6313843;20;3597123;-45
2022/09/24 08:44:07;;;;;;;;;38.33;34.00;;;;;15.22;75.40;99816.31;6282844;20;3621540;-45
2022/09/24 08:50:10;;;;;;;;;37.00;30.67;;;;;15.79;74.92;99809.97;6283854;20;3599262;-48
2022/09/24 08:53:26;;;;;;;;;36.33;30.00;;;;;15.78;74.93;99803.69;6283308;20;3608595;-48
2022/09/24 08:55:59;;;;;;;;;30.67;29.67;;;;;15.65;75.22;99797.53;6285086;20;3594041;-48
2022/09/24 08:58:50;;;;;;;;;30.00;29.00;;;;;16.94;70.45;99802.22;6275724;20;3591955;-44
2022/09/24 09:01:47;;;;;;;;;35.67;31.00;;;;;16.49;69.40;99797.00;6312459;20;3614892;-44
2022/09/24 09:04:41;;;;;;;;;31.00;30.00;;;;;16.22;68.99;99796.47;6314995;20;3576353;-48
2022/09/24 09:07:30;;;;;;;;;32.00;29.33;;;;;15.97;69.96;99803.03;6282526;20;3589857;-47
2022/09/24 09:10:26;;;;;;;;;28.67;27.33;;;;;16.56;68.42;99790.03;6282622;20;3577367;-48
2022/09/24 09:13:14;;;;;;;;;28.67;25.00;;;;;16.18;68.57;99786.00;6278927;20;3600322;-61
2022/09/24 09:15:57;;;;;;;;;19.50;19.00;;;;;16.26;67.75;99779.97;6278730;20;2837795;-61
2022/09/24 09:18:47;;;;;;;;;20.00;19.00;;;;;16.06;65.74;99790.63;6276771;20;2833634;-61
2022/09/24 09:21:25;;;;;;;;;20.50;18.50;;;;;16.36;65.75;99787.19;6277501;20;2833703;-61
2022/09/24 09:23:56;;;;;;;;;21.00;21.00;;;;;16.94;65.13;99780.53;6275712;20;2837958;-61
2022/09/24 09:26:26;;;;;;;;;23.00;21.50;;;;;17.19;63.53;99780.09;6279940;20;3463919;-61
2022/09/24 09:28:59;;;;;;;;;20.33;18.00;;;;;17.43;64.72;99777.09;6311388;20;3569067;-61
2022/09/24 09:32:31;;;;;;;;;19.00;16.00;;;;;17.31;65.10;99775.44;6271530;20;2491947;-60
2022/09/24 09:35:28;;;;;;;;;21.33;19.33;;;;;17.19;64.66;99780.09;6281445;20;3569009;-61
2022/09/24 09:38:40;;;;;;;;;21.00;21.00;;;;;17.24;63.70;99769.69;6307571;20;2837774;-61
2022/09/24 09:41:37;;;;;;;;;25.00;20.67;;;;;17.43;64.44;99773.50;6279277;20;3586710;-60
2022/09/24 09:44:26;;;;;;;;;15.00;15.00;;;;;17.09;62.03;99773.78;6275630;20;2500270;-60
2022/09/24 09:47:41;;;;;;;;;14.00;14.00;;;;;18.27;60.69;99782.19;6277061;20;3517185;-61
2022/09/24 09:50:27;;;;;;;;;13.00;12.00;;;;;17.85;58.12;99773.38;6309342;20;3527344;-60
2022/09/24 09:52:56;;;;;;;;;15.00;12.33;;;;;18.06;60.26;99778.72;6315401;20;2819058;-61
2022/09/24 09:55:33;;;;;;;;;15.50;14.00;;;;;17.82;60.16;99773.66;6313645;20;2809714;-60
2022/09/24 09:58:26;;;;;;;;;7.50;7.00;;;;;17.85;59.33;99776.09;6278714;20;2736783;-60
2022/09/24 10:01:14;;;;;;;;;16.50;15.00;;;;;17.58;60.42;99769.41;6278976;20;2818011;-61
2022/09/24 10:03:45;;;;;;;;;10.00;9.00;;;;;17.82;57.75;99774.53;6281762;20;2766989;-61
2022/09/24 10:06:24;;;;;;;;;9.50;8.00;;;;;18.56;56.37;99781.34;6286020;20;2758692;-60
2022/09/24 10:09:14;;;;;;;;;8.80;7.80;;;;;18.35;54.69;99776.03;6306394;20;2737834;-61
2022/09/24 10:11:45;;;;;;;;;8.60;8.60;;;;;18.58;54.58;99782.06;6337871;20;2748209;-61
2022/09/24 10:14:20;;;;;;;;;11.00;9.50;;;;;18.52;54.62;99779.94;6282088;20;2779477;-61
2022/09/24 10:16:54;;;;;;;;;11.00;10.00;;;;;18.89;53.60;99777.34;6280328;20;2789871;-61
2022/09/24 10:19:25;;;;;;;;;8.50;8.50;;;;;18.50;53.94;99776.47;6288511;20;2743019;-44
2022/09/24 10:21:57;;;;;;;;;9.60;9.40;;;;;18.30;54.15;99776.50;6303197;20;2773226;-43
2022/09/24 10:24:27;;;;;;;;;7.50;7.50;;;;;18.34;56.41;99768.91;6287812;20;2741961;-61
2022/09/24 10:26:57;;;;;;;;;9.00;9.00;;;;;18.26;56.39;99768.75;6306460;20;2742052;-46
2022/09/24 10:32:23;;;;;;;;;9.00;8.00;;;;;18.48;55.63;99760.31;6309599;20;2755512;-60
2022/09/24 10:34:57;;;;;;;;;5.50;5.50;;;;;18.80;54.01;99751.88;6282454;20;2736723;-42
2022/09/24 10:37:28;;;;;;;;;8.00;6.60;;;;;18.35;52.22;99751.56;6301762;20;2743030;-42
2022/09/24 10:40:09;;;;;;;;;8.20;7.00;;;;;18.15;53.38;99743.41;6336928;20;2729456;-54
2022/09/24 10:42:39;;;;;;;;;9.40;7.00;;;;;18.82;54.02;99738.13;6337552;20;2741934;-44
2022/09/24 10:45:15;;;;;;;;;5.20;5.20;;;;;18.17;51.67;99741.44;6336739;20;2744022;-43
2022/09/24 10:48:17;;;;;;;;;5.00;5.00;;;;;18.18;51.43;99739.56;6338778;20;2750430;-62
2022/09/24 10:51:20;;;;;;;;;5.00;4.00;;;;;18.65;52.24;99732.41;6282575;20;2750355;-53
2022/09/24 10:54:51;;;;;;;;;6.00;5.00;;;;;19.00;48.90;99733.63;6285060;20;2748259;-54
2022/09/24 10:57:51;;;;;;;;;4.00;4.00;;;;;19.45;48.75;99732.03;6288853;20;2747112;-54
2022/09/24 11:00:27;;;;;;;;;4.00;4.00;;;;;19.52;47.14;99723.13;6287246;20;2743076;-46
2022/09/24 11:03:28;;;;;;;;;6.00;6.00;;;;;19.70;48.03;99720.50;6328312;20;3451307;-49
2022/09/24 11:06:27;;;;;;;;;4.33;4.33;;;;;19.46;49.40;99725.63;6309943;20;2747223;-54
2022/09/24 11:09:28;;;;;;;;;5.00;5.00;;;;;19.26;48.99;99724.81;6336298;20;2745073;-55
2022/09/24 11:12:34;;;;;;;;;5.80;5.80;;;;;19.24;49.24;99722.25;6334743;20;2733628;-42
2022/09/24 11:15:32;;;;;;;;;3.86;3.86;;;;;18.84;47.92;99727.97;6353572;20;3440920;-45
2022/09/24 11:19:21;;;;;;;;;6.00;4.20;;;;;19.07;49.08;99721.16;6334998;20;2747154;-43
2022/09/24 11:23:03;;;;;;;;;5.80;5.00;;;;;19.24;49.97;99714.06;6336529;20;2746118;-44
2022/09/24 11:25:59;;;;;;;;;4.00;4.00;;;;;18.58;48.71;99714.94;6333117;20;2748228;-43
2022/09/24 11:29:34;;;;;;;;;3.00;3.00;;;;;18.49;49.88;99707.66;6314780;20;2741039;-44
2022/09/24 11:32:42;;;;;;;;;4.00;4.00;;;;;18.60;48.88;99712.09;6317980;20;2753417;-44
2022/09/24 11:35:18;;;;;;;;;6.00;6.00;;;;;18.86;49.00;99715.94;6288375;20;2745159;-43
2022/09/24 11:38:18;;;;;;;;;3.00;3.00;;;;;19.08;47.17;99711.97;6287694;20;2742170;-43
2022/09/24 11:41:20;;;;;;;;;5.00;4.00;;;;;19.05;47.75;99711.44;6290758;20;2745198;-44
2022/09/24 11:44:25;;;;;;;;;5.50;5.00;;;;;19.13;48.97;99707.97;6284573;20;2739884;-45
2022/09/24 11:47:43;;;;;;;;;3.67;3.67;;;;;19.52;47.62;99712.22;6286371;20;2744129;-48
2022/09/24 11:50:41;;;;;;;;;3.00;3.00;;;;;19.41;46.73;99704.28;6318296;20;2743984;-46
2022/09/24 11:54:07;;;;;;;;;4.00;4.00;;;;;19.62;46.24;99698.56;6340466;20;2742991;-45
2022/09/24 11:56:43;;;;;;;;;5.00;4.00;;;;;19.57;45.91;99683.69;6313914;20;2752404;-45
2022/09/24 11:59:30;;;;;;;;;3.67;2.33;;;;;19.35;47.17;99696.69;6313268;20;2732552;-56
2022/09/24 12:02:18;;;;;;;;;3.67;3.67;;;;;18.95;47.49;99678.81;6314260;20;2746793;-53